Time;durP1;ratioP1;P1;durP2;ratioP2;P2;SDS_P1;SDS_P2;PMS_P1;PMS_P2;Temp;Humidity;BMP_temperature;BMP_pressure;BME280_temperature;BME280_humidity;BME280_pressure;Samples;Min_cycle;Max_cycle;Signal;HPM_P1;HPM_P2
2024/01/05 00:01:19;;;;;;;5.55;0.65;;;10.00;99.90;;;;;;5023600;23;20150;-94
2024/01/05 00:03:21;;;;;;;1.67;0.63;;;10.10;99.90;;;;;;5000533;23;20211;-95
2024/01/05 00:05:22;;;;;;;1.98;0.50;;;10.20;99.90;;;;;;5001012;23;20162;-96
2024/01/05 00:07:27;;;;;;;2.28;0.47;;;10.20;99.90;;;;;;5024714;23;20178;-95
2024/01/05 00:09:28;;;;;;;3.40;0.45;;;10.20;99.90;;;;;;5000251;23;20155;-95
2024/01/05 00:11:29;;;;;;;5.68;1.90;;;10.20;99.90;;;;;;5000515;23;20151;-95
2024/01/05 00:13:32;;;;;;;0.98;0.20;;;10.40;99.90;;;;;;5000775;23;20160;-96
2024/01/05 00:15:38;;;;;;;4.85;1.65;;;10.50;99.90;;;;;;5023646;23;20601;-96
2024/01/05 00:17:42;;;;;;;2.97;0.80;;;10.40;99.90;;;;;;5024952;23;20562;-95
2024/01/05 00:19:46;;;;;;;2.97;0.70;;;10.30;99.90;;;;;;5000181;23;20163;-96
2024/01/05 00:21:46;;;;;;;3.70;0.65;;;10.30;99.90;;;;;;5025384;23;20151;-94
2024/01/05 00:23:49;;;;;;;2.45;0.45;;;10.30;99.90;;;;;;4999868;23;20215;-95
2024/01/05 00:25:49;;;;;;;1.67;0.50;;;10.40;99.90;;;;;;5000552;23;20537;-94
2024/01/05 00:27:59;;;;;;;8.13;1.35;;;10.40;99.90;;;;;;5023882;23;20257;-94
2024/01/05 00:30:08;;;;;;;3.03;0.50;;;10.40;99.90;;;;;;5026327;23;20151;-94
2024/01/05 00:32:09;;;;;;;0.30;0.17;;;10.50;99.90;;;;;;5048244;23;20249;-94
2024/01/05 00:34:10;;;;;;;1.60;0.65;;;10.50;99.90;;;;;;5048396;23;20158;-93
2024/01/05 00:36:12;;;;;;;5.40;0.30;;;10.40;99.90;;;;;;5001184;23;20193;-95
2024/01/05 00:38:13;;;;;;;1.58;0.30;;;10.50;99.90;;;;;;5001697;23;20262;-96
2024/01/05 00:40:17;;;;;;;2.05;0.93;;;10.50;99.90;;;;;;5000887;23;20171;-95
2024/01/05 00:42:18;;;;;;;2.00;0.40;;;10.60;99.90;;;;;;5000846;23;20156;-96
2024/01/05 00:44:19;;;;;;;0.57;0.13;;;10.50;99.90;;;;;;5023269;23;20203;-95
2024/01/05 00:46:20;;;;;;;3.53;0.25;;;10.60;99.90;;;;;;5025209;23;20186;-95
2024/01/05 00:48:24;;;;;;;1.42;0.30;;;10.50;99.90;;;;;;5025534;23;20155;-95
2024/01/05 00:50:26;;;;;;;5.60;0.35;;;10.50;99.90;;;;;;5025110;23;20230;-94
2024/01/05 00:52:28;;;;;;;0.70;0.20;;;10.50;99.90;;;;;;5001042;23;20234;-94
2024/01/05 00:54:29;;;;;;;5.50;0.75;;;10.60;99.90;;;;;;5000159;23;20619;-95
2024/01/05 00:56:32;;;;;;;4.32;0.68;;;10.50;99.90;;;;;;5024252;23;20186;-96
2024/01/05 00:58:33;;;;;;;4.82;0.70;;;10.50;99.90;;;;;;5048678;23;20245;-95
2024/01/05 01:00:37;;;;;;;0.10;0.08;;;10.50;99.90;;;;;;5023569;23;20155;-95
2024/01/05 01:02:43;;;;;;;3.13;1.05;;;10.50;99.90;;;;;;5022841;23;20182;-95
2024/01/05 01:04:46;;;;;;;1.38;0.43;;;10.40;99.90;;;;;;5000781;23;20155;-95
2024/01/05 01:06:50;;;;;;;3.17;0.38;;;10.60;99.90;;;;;;5000310;23;20182;-96
2024/01/05 01:08:54;;;;;;;0.45;0.17;;;10.70;99.90;;;;;;4999792;23;20190;-95
2024/01/05 01:10:55;;;;;;;1.65;0.20;;;10.60;99.90;;;;;;5000051;23;20156;-95
2024/01/05 01:12:56;;;;;;;4.88;0.55;;;10.50;99.90;;;;;;4999132;23;20256;-94
2024/01/05 01:14:59;;;;;;;4.47;0.93;;;10.40;99.90;;;;;;5023071;23;20155;-96
2024/01/05 01:17:00;;;;;;;1.80;0.32;;;10.40;99.90;;;;;;4999120;23;20180;-95
2024/01/05 01:19:07;;;;;;;2.83;0.43;;;10.60;99.90;;;;;;5000656;23;20195;-94
2024/01/05 01:21:08;;;;;;;5.13;0.68;;;10.50;99.90;;;;;;5025244;23;20151;-94
2024/01/05 01:23:11;;;;;;;0.40;0.30;;;10.50;99.90;;;;;;5000076;23;20216;-96
2024/01/05 01:25:19;;;;;;;2.63;0.68;;;10.50;99.90;;;;;;5002132;23;20166;-95
2024/01/05 01:27:23;;;;;;;2.75;0.57;;;10.50;99.90;;;;;;5000851;23;20179;-96
2024/01/05 01:29:25;;;;;;;0.38;0.20;;;10.60;99.90;;;;;;5000883;23;20191;-95
2024/01/05 01:31:28;;;;;;;4.10;0.57;;;10.60;99.90;;;;;;4999910;23;20155;-95
2024/01/05 01:33:29;;;;;;;0.77;0.40;;;10.60;99.90;;;;;;5000352;23;20159;-96
2024/01/05 01:35:30;;;;;;;0.95;0.30;;;10.60;99.90;;;;;;5000140;23;20151;-93
2024/01/05 01:37:34;;;;;;;3.25;0.28;;;10.50;99.90;;;;;;5001077;23;20179;-96
2024/01/05 01:39:38;;;;;;;4.22;1.05;;;10.60;99.90;;;;;;5001658;23;20178;-94
2024/01/05 01:41:42;;;;;;;1.50;0.57;;;10.60;99.90;;;;;;4998658;23;20268;-95
2024/01/05 01:43:48;;;;;;;0.13;0.00;;;10.60;99.90;;;;;;4999713;23;20163;-95
2024/01/05 01:45:49;;;;;;;0.10;0.10;;;10.50;99.90;;;;;;5000279;23;20147;-95
2024/01/05 01:47:51;;;;;;;7.95;1.15;;;10.50;99.90;;;;;;5022027;23;20518;-93
2024/01/05 01:49:52;;;;;;;0.70;0.10;;;10.40;99.90;;;;;;4998827;23;20200;-94
2024/01/05 01:52:14;;;;;;;2.50;0.22;;;10.40;99.90;;;;;;5027105;23;20165;-95
2024/01/05 01:54:22;;;;;;;1.88;0.20;;;10.40;99.90;;;;;;5023942;23;20211;-95
2024/01/05 01:56:26;;;;;;;8.77;0.75;;;10.50;99.90;;;;;;5023702;23;20206;-95
2024/01/05 01:58:27;;;;;;;5.03;0.40;;;10.50;99.90;;;;;;4998662;23;20211;-94
2024/01/05 02:00:28;;;;;;;1.13;0.47;;;10.40;99.90;;;;;;5023401;23;20155;-95
2024/01/05 02:02:33;;;;;;;0.88;0.28;;;10.40;99.90;;;;;;4999775;23;20215;-95
2024/01/05 02:04:35;;;;;;;0.82;0.20;;;10.40;99.90;;;;;;4999284;23;20227;-95
2024/01/05 02:06:38;;;;;;;1.10;0.10;;;10.50;99.90;;;;;;5023973;23;20171;-95
2024/01/05 02:08:40;;;;;;;5.28;0.98;;;10.50;99.90;;;;;;5023239;23;20150;-95
2024/01/05 02:10:41;;;;;;;9.07;1.10;;;10.50;99.90;;;;;;5000282;23;20151;-94
2024/01/05 02:12:42;;;;;;;4.47;0.47;;;10.40;99.90;;;;;;5001041;23;20541;-95
2024/01/05 02:14:44;;;;;;;0.35;0.15;;;10.40;99.90;;;;;;5000179;23;20691;-95
2024/01/05 02:16:45;;;;;;;8.88;0.57;;;10.40;99.90;;;;;;5000928;23;20187;-95
2024/01/05 02:18:54;;;;;;;0.00;0.00;;;10.40;99.90;;;;;;5023658;23;20278;-93
2024/01/05 02:20:59;;;;;;;1.48;0.82;;;10.50;99.90;;;;;;5000040;23;20182;-94
2024/01/05 02:23:04;;;;;;;3.95;0.30;;;10.60;99.90;;;;;;4998934;23;20292;-95
2024/01/05 02:25:12;;;;;;;0.50;0.20;;;10.60;99.90;;;;;;5000380;23;20155;-95
2024/01/05 02:27:13;;;;;;;3.25;0.43;;;10.60;99.90;;;;;;5000424;23;20187;-96
2024/01/05 02:29:20;;;;;;;3.67;0.15;;;10.60;99.90;;;;;;5023753;23;20155;-95
2024/01/05 02:31:23;;;;;;;0.55;0.22;;;10.50;99.90;;;;;;5023091;23;20243;-94
2024/01/05 02:33:29;;;;;;;1.40;0.45;;;10.50;99.90;;;;;;5023381;23;20158;-95
2024/01/05 02:35:33;;;;;;;5.28;0.73;;;10.50;99.90;;;;;;5023296;23;20159;-95
2024/01/05 02:37:34;;;;;;;0.08;0.03;;;10.50;99.90;;;;;;4999729;23;20179;-94
2024/01/05 02:39:38;;;;;;;0.43;0.10;;;10.50;99.90;;;;;;5000013;23;20207;-94
2024/01/05 02:41:39;;;;;;;0.30;0.30;;;10.60;99.90;;;;;;5000056;23;20480;-94
2024/01/05 02:43:45;;;;;;;6.43;0.50;;;10.60;99.90;;;;;;4999114;23;20166;-94
2024/01/05 02:45:46;;;;;;;5.38;1.25;;;10.60;99.90;;;;;;5000398;23;20263;-96
2024/01/05 02:47:51;;;;;;;3.13;0.40;;;10.70;99.90;;;;;;5021700;23;20172;-94
2024/01/05 02:49:54;;;;;;;3.08;0.22;;;10.60;99.90;;;;;;4998750;23;20163;-94
2024/01/05 02:51:57;;;;;;;0.70;0.45;;;10.60;99.90;;;;;;5024293;23;20174;-95
2024/01/05 02:53:58;;;;;;;2.97;0.77;;;10.50;99.90;;;;;;5023564;23;20507;-95
2024/01/05 02:55:59;;;;;;;0.10;0.10;;;10.50;99.90;;;;;;4999900;23;20155;-95
2024/01/05 02:58:02;;;;;;;0.55;0.28;;;10.40;99.90;;;;;;5002860;23;20231;-94
2024/01/05 03:00:06;;;;;;;0.70;0.20;;;10.30;99.90;;;;;;5002495;23;20211;-93
2024/01/05 03:02:07;;;;;;;1.13;0.20;;;10.30;99.90;;;;;;5003842;23;20152;-96
2024/01/05 03:04:10;;;;;;;1.45;0.30;;;10.20;99.90;;;;;;5001550;23;20163;-95
2024/01/05 03:06:14;;;;;;;0.38;0.25;;;10.20;99.90;;;;;;5000441;23;20208;-94
2024/01/05 03:08:18;;;;;;;0.10;0.00;;;10.20;99.90;;;;;;5025271;23;20154;-94
2024/01/05 03:10:21;;;;;;;0.68;0.03;;;10.20;99.90;;;;;;5025252;23;20214;-95
2024/01/05 03:12:23;;;;;;;0.63;0.17;;;10.20;99.90;;;;;;5002040;23;20215;-95
2024/01/05 03:14:23;;;;;;;0.10;0.00;;;10.10;99.90;;;;;;5000059;23;20284;-95
2024/01/05 03:16:26;;;;;;;0.40;0.00;;;10.10;99.90;;;;;;5024014;23;20190;-95
2024/01/05 03:18:27;;;;;;;5.15;0.45;;;10.00;99.90;;;;;;5023961;23;20205;-95
2024/01/05 03:20:30;;;;;;;0.40;0.10;;;10.00;99.90;;;;;;5002944;23;20155;-95
2024/01/05 03:22:32;;;;;;;0.10;0.00;;;9.90;99.90;;;;;;5027249;23;20183;-95
2024/01/05 03:24:38;;;;;;;0.00;0.00;;;10.00;99.90;;;;;;5002176;23;20235;-95
2024/01/05 03:26:45;;;;;;;0.03;0.03;;;9.90;99.90;;;;;;5026033;23;20232;-95
2024/01/05 03:28:48;;;;;;;0.47;0.13;;;9.90;99.90;;;;;;5003240;23;20162;-95
2024/01/05 03:30:54;;;;;;;0.32;0.10;;;9.90;99.90;;;;;;5026150;23;20155;-96
2024/01/05 03:32:58;;;;;;;10.00;0.15;;;9.80;99.90;;;;;;4980272;23;20171;-96
2024/01/05 03:35:00;;;;;;;0.10;0.10;;;9.80;99.90;;;;;;5026715;23;20212;-95
2024/01/05 03:37:04;;;;;;;0.70;0.05;;;9.80;99.90;;;;;;5001988;23;20179;-94
2024/01/05 03:39:10;;;;;;;5.07;0.20;;;9.80;99.90;;;;;;5025894;23;20194;-95
2024/01/05 03:41:34;;;;;;;0.25;0.20;;;9.80;99.90;;;;;;5001637;23;20318;-96
2024/01/05 03:43:38;;;;;;;0.00;0.00;;;9.80;99.90;;;;;;5001938;23;20168;-95
2024/01/05 03:45:51;;;;;;;0.00;0.00;;;9.70;99.90;;;;;;5004014;23;20159;-95
2024/01/05 03:47:52;;;;;;;0.05;0.00;;;9.60;99.90;;;;;;5052029;23;20171;-96
2024/01/05 03:50:10;;;;;;;0.00;0.00;;;9.60;99.90;;;;;;5029926;23;20214;-96
2024/01/05 03:52:12;;;;;;;0.15;0.10;;;9.50;99.90;;;;;;5027035;23;20147;-94
2024/01/05 03:54:13;;;;;;;0.08;0.00;;;9.50;99.90;;;;;;5002267;23;20166;-96
2024/01/05 03:56:14;;;;;;;0.15;0.15;;;9.50;99.90;;;;;;5001018;23;20281;-93
2024/01/05 03:58:22;;;;;;;0.00;0.00;;;9.40;99.90;;;;;;5027270;23;20254;-93
2024/01/05 04:00:26;;;;;;;0.60;0.28;;;9.30;99.90;;;;;;5003805;23;20155;-96
2024/01/05 04:02:27;;;;;;;0.00;0.00;;;9.40;99.90;;;;;;5000458;23;20163;-94
2024/01/05 04:04:30;;;;;;;0.65;0.17;;;9.50;99.90;;;;;;5025073;23;20601;-94
2024/01/05 04:06:31;;;;;;;0.10;0.00;;;9.40;99.90;;;;;;5026114;23;20182;-95
2024/01/05 04:08:32;;;;;;;0.22;0.00;;;9.50;99.90;;;;;;4978486;23;20157;-95
2024/01/05 04:10:33;;;;;;;0.00;0.00;;;9.40;99.90;;;;;;5000292;23;20216;-94
2024/01/05 04:12:37;;;;;;;0.22;0.15;;;9.30;99.90;;;;;;5002441;23;20175;-96
2024/01/05 04:14:44;;;;;;;0.00;0.00;;;9.20;99.90;;;;;;5004956;23;20163;-94
2024/01/05 04:16:52;;;;;;;1.25;0.10;;;9.20;99.90;;;;;;5003201;23;20263;-96
2024/01/05 04:18:57;;;;;;;10.32;0.38;;;9.30;99.90;;;;;;5049113;23;20629;-96
2024/01/05 04:21:03;;;;;;;0.28;0.00;;;9.20;99.90;;;;;;5024422;23;20214;-96
2024/01/05 04:23:07;;;;;;;0.15;0.00;;;9.20;99.90;;;;;;4999368;23;20187;-95
2024/01/05 04:25:09;;;;;;;1.00;0.10;;;9.10;99.90;;;;;;5025651;23;20158;-94
2024/01/05 04:27:13;;;;;;;0.73;0.00;;;9.00;99.90;;;;;;5004660;23;20203;-94
2024/01/05 04:29:15;;;;;;;0.10;0.00;;;9.00;99.90;;;;;;5005056;23;20155;-95
2024/01/05 04:31:27;;;;;;;0.03;0.00;;;8.90;99.90;;;;;;5001554;23;20160;-95
2024/01/05 04:33:31;;;;;;;0.00;0.00;;;8.80;99.90;;;;;;5003059;23;20152;-96
2024/01/05 04:35:35;;;;;;;0.00;0.00;;;8.70;99.90;;;;;;5024741;23;20158;-96
2024/01/05 04:37:36;;;;;;;1.30;0.30;;;8.60;99.90;;;;;;5000094;23;20245;-94
2024/01/05 04:39:38;;;;;;;0.00;0.00;;;8.60;99.90;;;;;;5025570;23;20245;-94
2024/01/05 04:41:38;;;;;;;0.20;0.20;;;8.60;99.90;;;;;;5024490;23;20537;-96
2024/01/05 04:43:43;;;;;;;1.70;0.40;;;8.60;99.90;;;;;;5001649;23;20179;-96
2024/01/05 04:45:44;;;;;;;0.00;0.00;;;8.50;99.90;;;;;;5024644;23;20151;-95
2024/01/05 04:47:53;;;;;;;0.00;0.00;;;8.50;99.90;;;;;;5023368;23;20178;-96
2024/01/05 04:49:56;;;;;;;0.20;0.20;;;8.50;99.90;;;;;;5000873;23;20208;-95
2024/01/05 04:51:58;;;;;;;0.00;0.00;;;8.40;99.90;;;;;;5025719;23;20590;-94
2024/01/05 04:54:03;;;;;;;1.70;0.03;;;8.30;99.90;;;;;;5024574;23;20147;-93
2024/01/05 04:56:07;;;;;;;0.00;0.00;;;8.20;99.90;;;;;;5001925;23;20217;-96
2024/01/05 04:58:08;;;;;;;0.80;0.32;;;8.20;99.90;;;;;;5002031;23;20311;-94
2024/01/05 05:00:13;;;;;;;0.20;0.20;;;8.10;99.90;;;;;;5001480;23;20168;-96
2024/01/05 05:02:14;;;;;;;0.20;0.10;;;8.00;99.90;;;;;;5002405;23;20152;-94
2024/01/05 05:04:17;;;;;;;0.95;0.20;;;7.90;99.90;;;;;;5002522;23;20198;-94
2024/01/05 05:06:30;;;;;;;0.10;0.10;;;7.90;99.90;;;;;;5024295;23;20323;-95
2024/01/05 05:08:32;;;;;;;0.00;0.00;;;7.90;99.90;;;;;;5025700;23;20199;-95
2024/01/05 05:10:37;;;;;;;0.22;0.00;;;7.90;99.90;;;;;;5001917;23;20152;-96
2024/01/05 05:12:50;;;;;;;0.00;0.00;;;7.90;99.90;;;;;;5028397;23;20183;-95
2024/01/05 05:14:53;;;;;;;0.00;0.00;;;7.80;99.90;;;;;;5003256;23;20151;-95
2024/01/05 05:16:56;;;;;;;1.80;0.20;;;7.70;99.90;;;;;;5025980;23;20250;-94
2024/01/05 05:19:10;;;;;;;;;;;;;;;;;;;;;
2024/01/05 05:21:17;;;;;;;0.45;0.03;;;7.80;99.90;;;;;;5026608;23;20151;-95
2024/01/05 05:23:18;;;;;;;0.00;0.00;;;7.70;99.90;;;;;;5024431;23;20151;-94
2024/01/05 05:25:30;;;;;;;0.70;0.40;;;7.70;99.90;;;;;;5002167;23;20156;-93
2024/01/05 05:27:33;;;;;;;0.10;0.10;;;7.60;99.90;;;;;;5002581;23;20198;-95
2024/01/05 05:29:40;;;;;;;0.00;0.00;;;7.70;99.90;;;;;;5002051;23;20156;-95
2024/01/05 05:31:41;;;;;;;5.33;0.20;;;7.70;99.90;;;;;;5002427;23;20159;-96
2024/01/05 05:33:42;;;;;;;0.10;0.00;;;7.60;99.90;;;;;;5025954;23;20203;-96
2024/01/05 05:35:43;;;;;;;0.27;0.00;;;7.60;99.90;;;;;;5004705;23;20167;-96
2024/01/05 05:37:55;;;;;;;0.10;0.00;;;7.50;99.90;;;;;;5002680;23;20274;-93
2024/01/05 05:39:56;;;;;;;0.00;0.00;;;7.60;99.90;;;;;;4999819;23;20243;-95
2024/01/05 05:41:57;;;;;;;2.80;0.30;;;7.50;99.90;;;;;;5000448;23;20155;-95
2024/01/05 05:43:58;;;;;;;13.67;0.40;;;7.50;99.90;;;;;;4999517;23;20227;-95
2024/01/05 05:45:59;;;;;;;0.00;0.00;;;7.50;99.90;;;;;;5000369;23;20152;-95
2024/01/05 05:48:02;;;;;;;0.10;0.00;;;7.50;99.90;;;;;;5024095;23;20175;-95
2024/01/05 05:50:07;;;;;;;2.33;0.10;;;7.50;99.90;;;;;;5023427;23;20163;-96
2024/01/05 05:52:11;;;;;;;3.05;0.10;;;7.40;99.90;;;;;;4978160;23;20577;-95
2024/01/05 05:54:12;;;;;;;0.40;0.20;;;7.50;99.90;;;;;;5001328;23;20179;-95
2024/01/05 05:56:13;;;;;;;0.38;0.10;;;7.50;99.90;;;;;;4999847;23;20167;-94
2024/01/05 05:58:22;;;;;;;1.03;0.30;;;7.50;99.90;;;;;;5025138;23;20194;-96
2024/01/05 06:00:46;;;;;;;0.10;0.00;;;7.50;99.90;;;;;;5023636;23;20151;-96
2024/01/05 06:02:57;;;;;;;0.00;0.00;;;7.40;99.90;;;;;;5026697;23;20163;-95
2024/01/05 06:05:04;;;;;;;0.00;0.00;;;7.40;99.90;;;;;;5000585;23;20155;-94
2024/01/05 06:07:07;;;;;;;0.20;0.20;;;7.50;99.90;;;;;;5002280;23;20260;-94
2024/01/05 06:09:08;;;;;;;0.10;0.10;;;7.50;99.90;;;;;;4997922;23;20236;-94
2024/01/05 06:11:18;;;;;;;0.10;0.10;;;7.50;99.90;;;;;;5021666;23;20607;-94
2024/01/05 06:13:19;;;;;;;0.00;0.00;;;7.60;99.90;;;;;;4997923;23;20190;-94
2024/01/05 06:15:20;;;;;;;0.40;0.20;;;7.50;99.90;;;;;;5021538;23;20235;-94
2024/01/05 06:17:24;;;;;;;0.60;0.10;;;7.50;99.90;;;;;;4999262;23;20199;-95
2024/01/05 06:19:24;;;;;;;0.30;0.10;;;7.50;99.90;;;;;;5025913;23;20258;-93
2024/01/05 06:21:25;;;;;;;0.00;0.00;;;7.60;99.90;;;;;;4996964;23;20152;-94
2024/01/05 06:30:12;;;;;;;0.00;0.00;;;7.60;99.90;;;;;;4780550;24;20267;-96
2024/01/05 06:36:18;;;;;;;0.63;0.10;;;7.50;99.90;;;;;;4722497;25;20164;-95
2024/01/05 06:39:02;;;;;;;0.10;0.10;;;7.40;99.90;;;;;;4705236;25;20214;-96
2024/01/05 06:45:33;;;;;;;0.00;0.00;;;7.20;99.90;;;;;;4806411;24;20166;-95
2024/01/05 06:51:49;;;;;;;;;;;;;;;;;;;;;
2024/01/05 06:58:15;;;;;;;1.80;0.27;;;7.10;99.90;;;;;;4795215;24;20191;-96
2024/01/05 07:05:06;;;;;;;16.37;0.40;;;7.10;99.90;;;;;;4754378;24;20201;-96
2024/01/05 07:22:34;;;;;;;0.00;0.00;;;6.60;99.90;;;;;;5076414;23;20212;-94
2024/01/05 07:30:06;;;;;;;0.00;0.00;;;6.40;99.90;;;;;;4917365;24;20190;-96
2024/01/05 07:33:34;;;;;;;0.37;0.00;;;6.30;99.90;;;;;;4917701;24;20174;-93
2024/01/05 08:15:19;;;;;;;3.60;0.33;;;6.80;99.90;;;;;;4387755;23;15077759;-95
2024/01/05 08:18:43;;;;;;;1.63;0.50;;;6.90;99.90;;;;;;5014783;23;20182;-95
2024/01/05 08:25:03;;;;;;;0.00;0.00;;;6.70;99.90;;;;;;4851820;24;20197;-94
2024/01/05 08:32:54;;;;;;;;;;;;;;;;;;;;;
2024/01/05 08:39:44;;;;;;;1.73;0.57;;;7.20;99.90;;;;;;4966341;23;20295;-95
2024/01/05 08:53:56;;;;;;;;;;;;;;;;;;;;;
2024/01/05 11:26:32;;;;;;;2.42;0.60;;;7.90;99.90;;;;;;5054926;23;20241;-94
2024/01/05 11:28:38;;;;;;;6.18;0.73;;;7.90;99.90;;;;;;5033024;23;20167;-91
2024/01/05 11:30:45;;;;;;;2.78;1.05;;;7.90;99.90;;;;;;5078644;23;20134;-91
2024/01/05 11:32:58;;;;;;;0.77;0.50;;;7.90;99.90;;;;;;5051959;23;20158;-92
2024/01/05 11:35:16;;;;;;;2.85;0.77;;;7.90;99.90;;;;;;5077226;23;20152;-93
2024/01/05 11:37:30;;;;;;;4.10;0.90;;;7.90;99.90;;;;;;5028498;23;20241;-91
2024/01/05 11:42:47;;;;;;;3.25;1.00;;;7.80;99.90;;;;;;5053507;23;20494;-92
2024/01/05 11:44:48;;;;;;;3.85;0.95;;;7.90;99.90;;;;;;5060284;23;20162;-96
2024/01/05 11:47:22;;;;;;;4.73;0.80;;;7.70;99.90;;;;;;5017515;23;20175;-92
2024/01/05 11:49:55;;;;;;;5.40;1.50;;;7.80;99.90;;;;;;5060188;23;20176;-95
2024/01/05 11:52:16;;;;;;;7.03;1.20;;;7.70;99.90;;;;;;5062892;23;20686;-95
2024/01/05 11:54:29;;;;;;;1.73;0.95;;;7.60;99.90;;;;;;5039119;23;20135;-93
2024/01/05 11:57:02;;;;;;;1.20;0.70;;;7.60;99.90;;;;;;5039215;23;20183;-93
2024/01/05 11:59:11;;;;;;;2.07;0.80;;;7.60;99.90;;;;;;5016148;23;20191;-95
2024/01/05 14:52:07;;;;;;;0.60;0.40;;;7.40;99.90;;;;;;5073756;23;20213;-94
2024/01/05 14:54:56;;;;;;;7.33;1.70;;;7.40;99.90;;;;;;5084479;23;20208;-94
2024/01/05 14:57:21;;;;;;;5.43;1.47;;;7.30;99.90;;;;;;4987064;23;20168;-94
2024/01/05 14:59:25;;;;;;;26.50;9.13;;;7.20;99.90;;;;;;4964305;23;20521;-94
2024/01/05 15:01:48;;;;;;;1.07;0.87;;;7.30;99.90;;;;;;5026837;23;20142;-94
2024/01/05 15:04:05;;;;;;;;;;;;;;;;;;;;;
2024/01/05 15:07:11;;;;;;;7.53;0.83;;;7.40;99.90;;;;;;5054387;23;20182;-95
2024/01/05 15:10:00;;;;;;;0.47;0.27;;;7.40;99.90;;;;;;5010027;23;20155;-95
2024/01/05 15:13:07;;;;;;;1.73;0.77;;;7.30;99.90;;;;;;5019536;23;20150;-93
2024/01/05 15:15:16;;;;;;;5.47;2.87;;;7.40;99.90;;;;;;5037771;23;20139;-94
2024/01/05 15:17:21;;;;;;;1.53;0.40;;;7.40;99.90;;;;;;5036030;23;20181;-93
2024/01/05 15:19:46;;;;;;;8.10;0.93;;;7.30;99.90;;;;;;5036617;23;20687;-95
2024/01/05 15:22:15;;;;;;;6.33;0.83;;;7.40;99.90;;;;;;5036518;23;20187;-94
2024/01/05 15:24:37;;;;;;;1.58;0.40;;;7.40;99.90;;;;;;5037179;23;20155;-95
2024/01/05 15:26:46;;;;;;;5.93;2.53;;;7.50;99.90;;;;;;5059498;23;20245;-94
2024/01/05 15:29:27;;;;;;;3.83;1.27;;;7.50;99.90;;;;;;5058538;23;20154;-93
2024/01/05 15:31:50;;;;;;;3.30;1.40;;;7.40;99.90;;;;;;5057416;23;20142;-93
2024/01/05 15:33:51;;;;;;;1.13;0.77;;;7.40;99.90;;;;;;5034870;23;20155;-94
2024/01/05 15:36:23;;;;;;;4.77;1.30;;;7.30;99.90;;;;;;5083047;23;20156;-94
2024/01/05 15:38:29;;;;;;;2.97;0.33;;;7.30;99.90;;;;;;5034835;23;20143;-96
2024/01/05 15:40:43;;;;;;;;;;;;;;;;;;;;;
2024/01/05 15:43:12;;;;;;;1.20;0.87;;;7.30;99.90;;;;;;5062442;23;20143;-94
2024/01/05 15:45:38;;;;;;;1.30;1.05;;;7.40;99.90;;;;;;5039384;23;20135;-94
2024/01/05 15:47:46;;;;;;;1.20;1.02;;;7.40;99.90;;;;;;5086434;23;20184;-95
2024/01/05 15:50:32;;;;;;;2.70;1.60;;;7.30;99.90;;;;;;5036435;23;20143;-94
2024/01/05 15:53:27;;;;;;;4.85;1.60;;;7.30;99.90;;;;;;5063888;23;20178;-94
2024/01/05 15:55:33;;;;;;;1.05;0.82;;;7.30;99.90;;;;;;5040548;23;20170;-95
2024/01/05 15:57:57;;;;;;;3.53;2.30;;;7.30;99.90;;;;;;5063626;23;20190;-94
2024/01/05 15:59:58;;;;;;;1.63;1.23;;;7.30;99.90;;;;;;5055061;23;20217;-91
2024/01/05 16:01:59;;;;;;;2.30;0.93;;;7.20;99.90;;;;;;5051129;23;20146;-91
2024/01/05 16:04:01;;;;;;;1.93;1.00;;;7.20;99.90;;;;;;5022943;23;20159;-92
2024/01/05 16:06:02;;;;;;;4.20;1.88;;;7.30;99.90;;;;;;5022237;23;20274;-93
2024/01/05 16:08:03;;;;;;;1.30;0.57;;;7.30;99.90;;;;;;5021929;23;20216;-91
2024/01/05 16:10:05;;;;;;;6.50;2.30;;;7.30;99.90;;;;;;5022283;23;20159;-92
2024/01/05 16:12:06;;;;;;;1.92;1.27;;;7.20;99.90;;;;;;5044851;23;20186;-91
2024/01/05 16:14:07;;;;;;;1.53;0.70;;;7.30;99.90;;;;;;5044507;23;20158;-93
2024/01/05 16:16:13;;;;;;;6.82;2.67;;;7.20;99.90;;;;;;5043774;23;20505;-92
2024/01/05 16:18:14;;;;;;;7.03;3.57;;;7.20;99.90;;;;;;5025143;23;20151;-94
2024/01/05 16:20:15;;;;;;;22.97;10.83;;;7.20;99.90;;;;;;5055208;23;20197;-94
2024/01/05 16:22:16;;;;;;;52.13;19.77;;;7.20;99.90;;;;;;5032206;23;20233;-96
2024/01/05 16:24:16;;;;;;;22.20;6.70;;;7.20;99.90;;;;;;5028833;23;20624;-95
2024/01/05 16:26:19;;;;;;;10.30;3.73;;;7.20;99.90;;;;;;5058919;23;20501;-94
2024/01/05 16:28:22;;;;;;;13.65;6.40;;;7.10;99.90;;;;;;5062938;23;20142;-94
2024/01/05 16:30:26;;;;;;;4.97;2.37;;;7.20;99.90;;;;;;5064575;23;20155;-94
2024/01/05 16:32:47;;;;;;;7.23;3.50;;;7.20;99.90;;;;;;5065661;23;20142;-95
2024/01/05 16:34:55;;;;;;;9.10;4.37;;;7.30;99.90;;;;;;5064282;23;20170;-94
2024/01/05 16:37:02;;;;;;;4.47;2.60;;;7.20;99.90;;;;;;5041987;23;20234;-94
2024/01/05 16:39:03;;;;;;;1.63;0.83;;;7.20;99.90;;;;;;5061283;23;20185;-94
2024/01/05 16:41:09;;;;;;;4.57;1.33;;;7.30;99.90;;;;;;5057290;23;20177;-93
2024/01/05 16:43:10;;;;;;;12.57;6.50;;;7.20;99.90;;;;;;5038181;23;20166;-94
2024/01/05 16:45:12;;;;;;;4.97;2.30;;;7.20;99.90;;;;;;5036546;23;20159;-93
2024/01/05 16:47:13;;;;;;;0.70;0.60;;;7.20;99.90;;;;;;5057854;23;20245;-93
2024/01/05 16:49:14;;;;;;;6.23;1.13;;;7.20;99.90;;;;;;5059105;23;20154;-94
2024/01/05 16:51:14;;;;;;;1.70;0.80;;;7.20;99.90;;;;;;5033322;23;20154;-94
2024/01/05 16:53:15;;;;;;;1.13;0.77;;;7.20;99.90;;;;;;5054466;23;20150;-94
2024/01/05 16:55:19;;;;;;;1.73;1.40;;;7.20;99.90;;;;;;5081924;23;20470;-94
2024/01/05 16:57:20;;;;;;;3.67;0.83;;;7.20;99.90;;;;;;5056073;23;20151;-94
2024/01/05 16:59:22;;;;;;;0.73;0.73;;;7.20;99.90;;;;;;5043847;23;20185;-94
2024/01/05 17:01:27;;;;;;;1.33;0.80;;;7.20;99.90;;;;;;5045316;23;20154;-95
2024/01/05 17:04:06;;;;;;;1.20;0.83;;;7.10;99.90;;;;;;5043417;23;20155;-95
2024/01/05 17:06:15;;;;;;;2.83;0.80;;;7.10;99.90;;;;;;5041135;23;20163;-95
2024/01/05 17:08:24;;;;;;;1.83;0.63;;;7.30;99.90;;;;;;5041170;23;20150;-94
2024/01/05 17:10:53;;;;;;;1.40;0.88;;;7.20;99.90;;;;;;5040474;23;20158;-96
2024/01/05 17:13:12;;;;;;;1.03;0.60;;;7.30;99.90;;;;;;5066185;23;20226;-95
2024/01/05 17:15:42;;;;;;;1.38;0.77;;;7.30;99.90;;;;;;5064207;23;20142;-96
2024/01/05 17:18:20;;;;;;;3.47;1.30;;;7.20;99.90;;;;;;5065775;23;20178;-96
2024/01/05 17:20:29;;;;;;;1.47;1.13;;;7.10;99.90;;;;;;5037505;23;20194;-96
2024/01/05 17:22:35;;;;;;;1.33;0.70;;;7.30;99.90;;;;;;5031937;23;20210;-94
2024/01/05 17:25:14;;;;;;;1.30;0.90;;;7.30;99.90;;;;;;5077602;23;20153;-96
2024/01/05 17:27:16;;;;;;;4.00;0.90;;;7.30;99.90;;;;;;5030193;23;20174;-96
2024/01/05 17:29:17;;;;;;;2.03;0.63;;;7.30;99.90;;;;;;5033665;23;20151;-96
2024/01/05 17:31:18;;;;;;;0.87;0.50;;;7.20;99.90;;;;;;5033215;23;20230;-95
2024/01/05 17:33:25;;;;;;;1.45;0.57;;;7.10;99.90;;;;;;5055279;23;20217;-95
2024/01/05 17:35:52;;;;;;;1.83;0.60;;;7.10;99.90;;;;;;5028937;23;20143;-95
2024/01/05 17:38:17;;;;;;;3.40;0.90;;;7.10;99.90;;;;;;5029412;23;20179;-96
2024/01/05 17:40:50;;;;;;;;;;;;;;;;;;;;;
2024/01/05 17:43:52;;;;;;;2.00;1.17;;;7.10;99.90;;;;;;5020171;23;20238;-96
2024/01/05 17:46:10;;;;;;;1.07;0.70;;;7.10;99.90;;;;;;4987002;23;20164;-95
2024/01/05 17:48:30;;;;;;;1.80;0.90;;;7.20;99.90;;;;;;4985694;23;20227;-96
2024/01/05 17:50:48;;;;;;;1.30;0.67;;;7.10;99.90;;;;;;4984283;23;20168;-96
2024/01/05 17:53:59;;;;;;;2.53;0.53;;;7.20;99.90;;;;;;4988869;23;20166;-96
2024/01/05 17:56:40;;;;;;;2.07;0.77;;;7.00;99.90;;;;;;5009963;23;20188;-96
2024/01/05 17:59:53;;;;;;;;;;;;;;;;;;;;;
2024/01/05 18:02:12;;;;;;;4.43;0.90;;;7.20;99.90;;;;;;5036013;23;20658;-96
2024/01/05 18:04:24;;;;;;;0.70;0.40;;;7.30;99.90;;;;;;4990757;23;20245;-96
2024/01/05 18:09:40;;;;;;;1.07;0.60;;;7.30;99.90;;;;;;5067208;23;20186;-95
2024/01/05 18:11:44;;;;;;;0.73;0.47;;;7.40;99.90;;;;;;5030634;23;20222;-96
2024/01/05 18:14:05;;;;;;;0.35;0.35;;;7.50;99.90;;;;;;5056174;23;20154;-95
2024/01/05 18:16:53;;;;;;;2.97;0.40;;;7.50;99.90;;;;;;5029857;23;20182;-95
2024/01/05 18:19:06;;;;;;;0.82;0.52;;;7.60;99.90;;;;;;5055487;23;20221;-95
2024/01/05 18:21:11;;;;;;;0.77;0.55;;;7.50;99.90;;;;;;5029246;23;20191;-96
2024/01/05 18:23:12;;;;;;;0.82;0.55;;;7.60;99.90;;;;;;5050700;23;20151;-95
2024/01/05 18:25:14;;;;;;;0.40;0.30;;;7.80;99.90;;;;;;5051030;23;20134;-96
2024/01/05 18:27:14;;;;;;;0.50;0.30;;;7.80;99.90;;;;;;5025709;23;20268;-95
2024/01/05 18:29:24;;;;;;;1.23;0.75;;;7.70;99.90;;;;;;5052594;23;20153;-95
2024/01/05 18:31:29;;;;;;;0.85;0.60;;;7.70;99.90;;;;;;5075898;23;20150;-95
2024/01/05 18:33:41;;;;;;;1.30;0.55;;;7.70;99.90;;;;;;5052470;23;20224;-95
2024/01/05 18:36:03;;;;;;;1.42;0.70;;;7.90;99.90;;;;;;5031983;23;20589;-96
2024/01/05 18:38:13;;;;;;;3.97;0.95;;;7.90;99.90;;;;;;5026868;23;20157;-95
2024/01/05 18:40:59;;;;;;;;;;;;;;;;;;;;;
2024/01/05 18:43:16;;;;;;;7.30;0.97;;;7.80;99.90;;;;;;5046449;23;20156;-95
2024/01/05 18:45:17;;;;;;;1.23;0.37;;;7.60;99.90;;;;;;5023313;23;20234;-96
2024/01/05 18:47:33;;;;;;;0.73;0.47;;;7.70;99.90;;;;;;5027530;23;20180;-96
2024/01/05 18:50:11;;;;;;;1.75;0.50;;;7.90;99.90;;;;;;5028780;23;20187;-94